sensor_id;sensor_type;location;lat;lon;timestamp;temperature;humidity
41926;DHT22;27615;51.826;5.692;2022-11-15T00:01:42;7.40;99.90
41926;DHT22;27615;51.826;5.692;2022-11-15T00:04:08;7.50;99.90
41926;DHT22;27615;51.826;5.692;2022-11-15T00:06:35;7.50;99.90
41926;DHT22;27615;51.826;5.692;2022-11-15T00:09:01;7.50;99.90
41926;DHT22;27615;51.826;5.692;2022-11-15T00:11:27;7.50;99.90
41926;DHT22;27615;51.826;5.692;2022-11-15T00:13:57;7.60;99.90
41926;DHT22;27615;51.826;5.692;2022-11-15T00:16:23;7.60;99.90
41926;DHT22;27615;51.826;5.692;2022-11-15T00:18:49;7.60;99.90
41926;DHT22;27615;51.826;5.692;2022-11-15T00:21:15;7.60;99.90
41926;DHT22;27615;51.826;5.692;2022-11-15T00:23:40;7.60;99.90
41926;DHT22;27615;51.826;5.692;2022-11-15T00:26:07;7.60;99.90
41926;DHT22;27615;51.826;5.692;2022-11-15T00:28:36;7.70;99.90
41926;DHT22;27615;51.826;5.692;2022-11-15T00:31:03;7.70;99.90
41926;DHT22;27615;51.826;5.692;2022-11-15T00:33:29;7.70;99.90
41926;DHT22;27615;51.826;5.692;2022-11-15T00:36:00;7.70;99.90
41926;DHT22;27615;51.826;5.692;2022-11-15T00:38:30;7.70;99.90
41926;DHT22;27615;51.826;5.692;2022-11-15T00:40:56;7.70;99.90
41926;DHT22;27615;51.826;5.692;2022-11-15T00:43:21;7.70;99.90
41926;DHT22;27615;51.826;5.692;2022-11-15T00:45:47;7.70;99.90
41926;DHT22;27615;51.826;5.692;2022-11-15T00:48:12;7.80;99.90
41926;DHT22;27615;51.826;5.692;2022-11-15T00:50:38;7.80;99.90
41926;DHT22;27615;51.826;5.692;2022-11-15T00:53:03;7.80;99.90
41926;DHT22;27615;51.826;5.692;2022-11-15T00:55:29;7.80;99.90
41926;DHT22;27615;51.826;5.692;2022-11-15T00:57:54;7.90;99.90
41926;DHT22;27615;51.826;5.692;2022-11-15T01:00:20;7.90;99.90
41926;DHT22;27615;51.826;5.692;2022-11-15T01:02:45;8.00;99.90
41926;DHT22;27615;51.826;5.692;2022-11-15T01:05:11;8.00;99.90
41926;DHT22;27615;51.826;5.692;2022-11-15T01:07:36;8.10;99.90
41926;DHT22;27615;51.826;5.692;2022-11-15T01:10:03;8.10;99.90
41926;DHT22;27615;51.826;5.692;2022-11-15T01:12:29;8.10;99.90
41926;DHT22;27615;51.826;5.692;2022-11-15T01:14:54;8.10;99.90
41926;DHT22;27615;51.826;5.692;2022-11-15T01:17:20;8.20;99.90
41926;DHT22;27615;51.826;5.692;2022-11-15T01:19:45;8.20;99.90
41926;DHT22;27615;51.826;5.692;2022-11-15T01:22:11;8.20;99.90
41926;DHT22;27615;51.826;5.692;2022-11-15T01:24:36;8.20;99.90
41926;DHT22;27615;51.826;5.692;2022-11-15T01:27:02;8.20;99.90
41926;DHT22;27615;51.826;5.692;2022-11-15T01:29:27;8.20;99.90
41926;DHT22;27615;51.826;5.692;2022-11-15T01:31:53;8.30;99.90
41926;DHT22;27615;51.826;5.692;2022-11-15T01:34:19;8.30;99.90
41926;DHT22;27615;51.826;5.692;2022-11-15T01:36:44;8.30;99.90
41926;DHT22;27615;51.826;5.692;2022-11-15T01:39:10;8.30;99.90
41926;DHT22;27615;51.826;5.692;2022-11-15T01:41:35;8.40;99.90
41926;DHT22;27615;51.826;5.692;2022-11-15T01:47:20;8.50;99.90
41926;DHT22;27615;51.826;5.692;2022-11-15T01:50:21;8.50;99.90
41926;DHT22;27615;51.826;5.692;2022-11-15T01:52:47;8.50;99.90
41926;DHT22;27615;51.826;5.692;2022-11-15T01:55:22;8.60;99.90
41926;DHT22;27615;51.826;5.692;2022-11-15T01:57:53;8.60;99.90
41926;DHT22;27615;51.826;5.692;2022-11-15T02:00:19;8.70;99.90
41926;DHT22;27615;51.826;5.692;2022-11-15T02:02:45;8.70;99.90
41926;DHT22;27615;51.826;5.692;2022-11-15T02:05:10;8.70;99.90
41926;DHT22;27615;51.826;5.692;2022-11-15T02:07:36;8.80;99.90
41926;DHT22;27615;51.826;5.692;2022-11-15T02:10:11;8.80;99.90
41926;DHT22;27615;51.826;5.692;2022-11-15T02:12:37;8.90;99.90
41926;DHT22;27615;51.826;5.692;2022-11-15T02:15:04;8.90;99.90
41926;DHT22;27615;51.826;5.692;2022-11-15T02:17:33;8.90;99.90
41926;DHT22;27615;51.826;5.692;2022-11-15T02:28:27;9.10;99.90
41926;DHT22;27615;51.826;5.692;2022-11-15T02:34:08;9.10;99.90
41926;DHT22;27615;51.826;5.692;2022-11-15T02:36:48;9.20;99.90
41926;DHT22;27615;51.826;5.692;2022-11-15T02:39:24;9.20;99.90
41926;DHT22;27615;51.826;5.692;2022-11-15T02:41:58;9.20;99.90
41926;DHT22;27615;51.826;5.692;2022-11-15T02:44:45;9.30;99.90
41926;DHT22;27615;51.826;5.692;2022-11-15T02:47:15;9.40;99.90
41926;DHT22;27615;51.826;5.692;2022-11-15T02:49:52;9.40;99.90
41926;DHT22;27615;51.826;5.692;2022-11-15T02:52:24;9.60;99.90
41926;DHT22;27615;51.826;5.692;2022-11-15T02:54:57;9.60;99.90
41926;DHT22;27615;51.826;5.692;2022-11-15T03:00:14;9.70;99.90
41926;DHT22;27615;51.826;5.692;2022-11-15T03:03:09;9.80;99.90
41926;DHT22;27615;51.826;5.692;2022-11-15T03:05:53;9.90;99.90
41926;DHT22;27615;51.826;5.692;2022-11-15T03:08:26;9.90;99.90
41926;DHT22;27615;51.826;5.692;2022-11-15T03:11:12;9.90;99.90
41926;DHT22;27615;51.826;5.692;2022-11-15T03:13:40;10.00;99.90
41926;DHT22;27615;51.826;5.692;2022-11-15T03:18:42;10.10;99.90
41926;DHT22;27615;51.826;5.692;2022-11-15T03:21:11;10.20;99.90
41926;DHT22;27615;51.826;5.692;2022-11-15T03:23:40;10.20;99.90
41926;DHT22;27615;51.826;5.692;2022-11-15T03:26:08;10.30;99.90
41926;DHT22;27615;51.826;5.692;2022-11-15T03:28:53;10.30;99.90
41926;DHT22;27615;51.826;5.692;2022-11-15T03:31:22;10.30;99.90
41926;DHT22;27615;51.826;5.692;2022-11-15T03:34:11;10.40;99.90
41926;DHT22;27615;51.826;5.692;2022-11-15T03:36:40;10.40;99.90
41926;DHT22;27615;51.826;5.692;2022-11-15T03:39:07;10.40;99.90
41926;DHT22;27615;51.826;5.692;2022-11-15T03:41:43;10.50;99.90
41926;DHT22;27615;51.826;5.692;2022-11-15T03:44:33;10.50;99.90
41926;DHT22;27615;51.826;5.692;2022-11-15T03:47:21;10.50;99.90
41926;DHT22;27615;51.826;5.692;2022-11-15T03:49:53;10.60;99.90
41926;DHT22;27615;51.826;5.692;2022-11-15T03:52:22;10.50;99.90
41926;DHT22;27615;51.826;5.692;2022-11-15T03:54:54;10.60;99.90
41926;DHT22;27615;51.826;5.692;2022-11-15T03:57:19;10.60;99.90
41926;DHT22;27615;51.826;5.692;2022-11-15T03:59:45;10.70;99.90
41926;DHT22;27615;51.826;5.692;2022-11-15T04:02:12;10.70;99.90
41926;DHT22;27615;51.826;5.692;2022-11-15T04:04:37;10.70;99.90
41926;DHT22;27615;51.826;5.692;2022-11-15T04:07:03;10.70;99.90
41926;DHT22;27615;51.826;5.692;2022-11-15T04:09:29;10.80;99.90
41926;DHT22;27615;51.826;5.692;2022-11-15T04:11:54;10.80;99.90
41926;DHT22;27615;51.826;5.692;2022-11-15T04:14:20;10.80;99.90
41926;DHT22;27615;51.826;5.692;2022-11-15T04:16:46;10.80;99.90
41926;DHT22;27615;51.826;5.692;2022-11-15T04:19:11;10.80;99.90
41926;DHT22;27615;51.826;5.692;2022-11-15T04:21:55;10.80;99.90
41926;DHT22;27615;51.826;5.692;2022-11-15T04:24:39;10.80;99.90
41926;DHT22;27615;51.826;5.692;2022-11-15T04:27:04;10.90;99.90
41926;DHT22;27615;51.826;5.692;2022-11-15T04:29:30;10.90;99.90
41926;DHT22;27615;51.826;5.692;2022-11-15T04:32:06;10.90;99.90
41926;DHT22;27615;51.826;5.692;2022-11-15T04:34:32;10.90;99.90
41926;DHT22;27615;51.826;5.692;2022-11-15T04:36:58;10.90;99.90
41926;DHT22;27615;51.826;5.692;2022-11-15T04:39:40;10.90;99.90
41926;DHT22;27615;51.826;5.692;2022-11-15T04:42:06;10.90;99.90
41926;DHT22;27615;51.826;5.692;2022-11-15T04:44:32;10.90;99.90
41926;DHT22;27615;51.826;5.692;2022-11-15T04:46:58;10.90;99.90
41926;DHT22;27615;51.826;5.692;2022-11-15T04:49:23;10.90;99.90
41926;DHT22;27615;51.826;5.692;2022-11-15T04:51:49;10.90;99.90
41926;DHT22;27615;51.826;5.692;2022-11-15T04:54:15;11.00;99.90
41926;DHT22;27615;51.826;5.692;2022-11-15T04:56:40;11.00;99.90
41926;DHT22;27615;51.826;5.692;2022-11-15T04:59:06;11.00;99.90
41926;DHT22;27615;51.826;5.692;2022-11-15T05:01:31;11.00;99.90
41926;DHT22;27615;51.826;5.692;2022-11-15T05:03:57;11.00;99.90
41926;DHT22;27615;51.826;5.692;2022-11-15T05:06:41;11.00;99.90
41926;DHT22;27615;51.826;5.692;2022-11-15T05:09:07;11.00;99.90
41926;DHT22;27615;51.826;5.692;2022-11-15T05:11:32;11.10;99.90
41926;DHT22;27615;51.826;5.692;2022-11-15T05:13:58;11.10;99.90
41926;DHT22;27615;51.826;5.692;2022-11-15T05:16:23;11.10;99.90
41926;DHT22;27615;51.826;5.692;2022-11-15T05:18:53;11.10;99.90
41926;DHT22;27615;51.826;5.692;2022-11-15T05:21:19;11.20;99.90
41926;DHT22;27615;51.826;5.692;2022-11-15T05:23:44;11.20;99.90
41926;DHT22;27615;51.826;5.692;2022-11-15T05:26:10;11.20;99.90
41926;DHT22;27615;51.826;5.692;2022-11-15T05:28:36;11.20;99.90
41926;DHT22;27615;51.826;5.692;2022-11-15T05:31:14;11.20;99.90
41926;DHT22;27615;51.826;5.692;2022-11-15T05:33:40;11.20;99.90
41926;DHT22;27615;51.826;5.692;2022-11-15T05:36:37;11.20;99.90
41926;DHT22;27615;51.826;5.692;2022-11-15T05:39:05;11.20;99.90
41926;DHT22;27615;51.826;5.692;2022-11-15T05:41:34;11.20;99.90
41926;DHT22;27615;51.826;5.692;2022-11-15T05:44:01;11.20;99.90
41926;DHT22;27615;51.826;5.692;2022-11-15T05:46:28;11.20;99.90
41926;DHT22;27615;51.826;5.692;2022-11-15T05:48:55;11.20;99.90
41926;DHT22;27615;51.826;5.692;2022-11-15T05:51:22;11.30;99.90
41926;DHT22;27615;51.826;5.692;2022-11-15T05:53:48;11.30;99.90
41926;DHT22;27615;51.826;5.692;2022-11-15T05:56:15;11.30;99.90
41926;DHT22;27615;51.826;5.692;2022-11-15T05:58:41;11.30;99.90
41926;DHT22;27615;51.826;5.692;2022-11-15T06:01:07;11.30;99.90
41926;DHT22;27615;51.826;5.692;2022-11-15T06:03:33;11.30;99.90
41926;DHT22;27615;51.826;5.692;2022-11-15T06:05:58;11.30;99.90
41926;DHT22;27615;51.826;5.692;2022-11-15T06:08:24;11.30;99.90
41926;DHT22;27615;51.826;5.692;2022-11-15T06:10:49;11.30;99.90
41926;DHT22;27615;51.826;5.692;2022-11-15T06:13:15;11.30;99.90
41926;DHT22;27615;51.826;5.692;2022-11-15T06:15:40;11.30;99.90
41926;DHT22;27615;51.826;5.692;2022-11-15T06:18:06;11.30;99.90
41926;DHT22;27615;51.826;5.692;2022-11-15T06:20:31;11.30;99.90
41926;DHT22;27615;51.826;5.692;2022-11-15T06:22:58;11.30;99.90
41926;DHT22;27615;51.826;5.692;2022-11-15T06:25:24;11.30;99.90
41926;DHT22;27615;51.826;5.692;2022-11-15T06:27:54;11.30;99.90
41926;DHT22;27615;51.826;5.692;2022-11-15T06:30:21;11.30;99.90
41926;DHT22;27615;51.826;5.692;2022-11-15T06:32:47;11.30;99.90
41926;DHT22;27615;51.826;5.692;2022-11-15T06:35:13;11.30;99.90
41926;DHT22;27615;51.826;5.692;2022-11-15T06:37:39;11.40;99.90
41926;DHT22;27615;51.826;5.692;2022-11-15T06:40:05;11.40;99.90
41926;DHT22;27615;51.826;5.692;2022-11-15T06:42:30;11.40;99.90
41926;DHT22;27615;51.826;5.692;2022-11-15T06:44:56;11.40;99.90
41926;DHT22;27615;51.826;5.692;2022-11-15T06:47:21;11.40;99.90
41926;DHT22;27615;51.826;5.692;2022-11-15T06:49:47;11.40;99.90
41926;DHT22;27615;51.826;5.692;2022-11-15T06:52:12;11.40;99.90
41926;DHT22;27615;51.826;5.692;2022-11-15T06:54:38;11.40;99.90
41926;DHT22;27615;51.826;5.692;2022-11-15T06:57:04;11.40;99.90
41926;DHT22;27615;51.826;5.692;2022-11-15T06:59:30;11.50;99.90
41926;DHT22;27615;51.826;5.692;2022-11-15T07:01:55;11.50;99.90
41926;DHT22;27615;51.826;5.692;2022-11-15T07:04:21;11.50;99.90
41926;DHT22;27615;51.826;5.692;2022-11-15T07:06:48;11.40;99.90
41926;DHT22;27615;51.826;5.692;2022-11-15T07:09:14;11.40;99.90
41926;DHT22;27615;51.826;5.692;2022-11-15T07:11:40;11.40;99.90
41926;DHT22;27615;51.826;5.692;2022-11-15T07:14:07;11.40;99.90
41926;DHT22;27615;51.826;5.692;2022-11-15T07:16:33;11.40;99.90
41926;DHT22;27615;51.826;5.692;2022-11-15T07:18:59;11.40;99.90
41926;DHT22;27615;51.826;5.692;2022-11-15T07:21:24;11.40;99.90
41926;DHT22;27615;51.826;5.692;2022-11-15T07:23:50;11.40;99.90
41926;DHT22;27615;51.826;5.692;2022-11-15T07:26:15;11.40;99.90
41926;DHT22;27615;51.826;5.692;2022-11-15T07:28:41;11.40;99.90
41926;DHT22;27615;51.826;5.692;2022-11-15T07:31:08;11.40;99.90
41926;DHT22;27615;51.826;5.692;2022-11-15T07:33:34;11.50;99.90
41926;DHT22;27615;51.826;5.692;2022-11-15T07:36:01;11.50;99.90
41926;DHT22;27615;51.826;5.692;2022-11-15T07:38:28;11.50;99.90
41926;DHT22;27615;51.826;5.692;2022-11-15T07:40:58;11.50;99.90
41926;DHT22;27615;51.826;5.692;2022-11-15T07:43:24;11.50;99.90
41926;DHT22;27615;51.826;5.692;2022-11-15T07:45:50;11.50;99.90
41926;DHT22;27615;51.826;5.692;2022-11-15T07:48:15;11.60;99.90
41926;DHT22;27615;51.826;5.692;2022-11-15T07:50:41;11.50;99.90
41926;DHT22;27615;51.826;5.692;2022-11-15T07:53:08;11.50;99.90
41926;DHT22;27615;51.826;5.692;2022-11-15T07:55:34;11.50;99.90
41926;DHT22;27615;51.826;5.692;2022-11-15T07:58:05;11.40;99.90
41926;DHT22;27615;51.826;5.692;2022-11-15T08:00:31;11.50;99.90
41926;DHT22;27615;51.826;5.692;2022-11-15T08:03:10;11.40;99.90
41926;DHT22;27615;51.826;5.692;2022-11-15T08:05:38;11.50;99.90
41926;DHT22;27615;51.826;5.692;2022-11-15T08:08:04;11.40;99.90
41926;DHT22;27615;51.826;5.692;2022-11-15T08:10:30;11.40;99.90
41926;DHT22;27615;51.826;5.692;2022-11-15T08:12:59;11.50;99.90
41926;DHT22;27615;51.826;5.692;2022-11-15T08:15:26;11.50;99.90
41926;DHT22;27615;51.826;5.692;2022-11-15T08:17:59;11.50;99.90
41926;DHT22;27615;51.826;5.692;2022-11-15T08:20:26;11.50;99.90
41926;DHT22;27615;51.826;5.692;2022-11-15T08:22:55;11.50;99.90
41926;DHT22;27615;51.826;5.692;2022-11-15T08:25:21;11.50;99.90
41926;DHT22;27615;51.826;5.692;2022-11-15T08:27:47;11.40;99.90
41926;DHT22;27615;51.826;5.692;2022-11-15T08:30:12;11.40;99.90
41926;DHT22;27615;51.826;5.692;2022-11-15T08:32:38;11.40;99.90
41926;DHT22;27615;51.826;5.692;2022-11-15T08:35:04;11.40;99.90
41926;DHT22;27615;51.826;5.692;2022-11-15T08:37:30;11.40;99.90
41926;DHT22;27615;51.826;5.692;2022-11-15T08:39:56;11.40;99.90
41926;DHT22;27615;51.826;5.692;2022-11-15T08:42:21;11.40;99.90
41926;DHT22;27615;51.826;5.692;2022-11-15T08:44:47;11.40;99.90
41926;DHT22;27615;51.826;5.692;2022-11-15T08:47:12;11.40;99.90
41926;DHT22;27615;51.826;5.692;2022-11-15T08:49:39;11.40;99.90
41926;DHT22;27615;51.826;5.692;2022-11-15T12:32:02;17.90;70.90
41926;DHT22;27615;51.826;5.692;2022-11-15T12:34:39;18.20;70.70
41926;DHT22;27615;51.826;5.692;2022-11-15T12:37:44;18.30;70.90
41926;DHT22;27615;51.826;5.692;2022-11-15T12:40:21;18.30;68.60
41926;DHT22;27615;51.826;5.692;2022-11-15T12:45:45;18.10;68.30
41926;DHT22;27615;51.826;5.692;2022-11-15T12:56:16;17.90;70.10
41926;DHT22;27615;51.826;5.692;2022-11-15T12:58:47;17.90;67.60
41926;DHT22;27615;51.826;5.692;2022-11-15T13:06:46;17.20;70.30
41926;DHT22;27615;51.826;5.692;2022-11-15T13:12:07;16.60;72.10
41926;DHT22;27615;51.826;5.692;2022-11-15T13:17:24;16.30;73.80
41926;DHT22;27615;51.826;5.692;2022-11-15T13:20:09;16.00;74.90
41926;DHT22;27615;51.826;5.692;2022-11-15T13:22:49;15.80;75.60
41926;DHT22;27615;51.826;5.692;2022-11-15T13:33:43;15.30;77.60
41926;DHT22;27615;51.826;5.692;2022-11-15T13:38:43;15.10;78.90
41926;DHT22;27615;51.826;5.692;2022-11-15T13:43:43;14.90;79.60
41926;DHT22;27615;51.826;5.692;2022-11-15T13:48:43;14.70;80.00
41926;DHT22;27615;51.826;5.692;2022-11-15T13:51:26;14.60;80.00
41926;DHT22;27615;51.826;5.692;2022-11-15T13:54:00;14.50;80.40
41926;DHT22;27615;51.826;5.692;2022-11-15T13:56:27;14.30;81.20
41926;DHT22;27615;51.826;5.692;2022-11-15T13:58:54;14.30;81.80
41926;DHT22;27615;51.826;5.692;2022-11-15T14:01:21;14.20;81.80
41926;DHT22;27615;51.826;5.692;2022-11-15T14:03:54;14.10;82.30
41926;DHT22;27615;51.826;5.692;2022-11-15T14:06:23;14.00;82.60
41926;DHT22;27615;51.826;5.692;2022-11-15T14:09:03;13.90;83.90
41926;DHT22;27615;51.826;5.692;2022-11-15T14:11:30;13.80;83.20
41926;DHT22;27615;51.826;5.692;2022-11-15T14:16:41;13.70;83.10
41926;DHT22;27615;51.826;5.692;2022-11-15T14:22:13;13.60;84.10
41926;DHT22;27615;51.826;5.692;2022-11-15T14:24:40;13.60;84.30
41926;DHT22;27615;51.826;5.692;2022-11-15T14:27:35;13.50;84.30
41926;DHT22;27615;51.826;5.692;2022-11-15T14:30:01;13.50;84.00
41926;DHT22;27615;51.826;5.692;2022-11-15T14:32:29;13.50;84.80
41926;DHT22;27615;51.826;5.692;2022-11-15T14:34:57;13.60;85.00
41926;DHT22;27615;51.826;5.692;2022-11-15T14:37:31;13.60;84.30
41926;DHT22;27615;51.826;5.692;2022-11-15T14:39:59;13.60;84.10
41926;DHT22;27615;51.826;5.692;2022-11-15T14:42:25;13.50;84.20
41926;DHT22;27615;51.826;5.692;2022-11-15T14:44:51;13.40;84.50
41926;DHT22;27615;51.826;5.692;2022-11-15T14:47:17;13.50;84.80
41926;DHT22;27615;51.826;5.692;2022-11-15T14:49:43;13.50;84.50
41926;DHT22;27615;51.826;5.692;2022-11-15T14:52:29;13.40;84.00
41926;DHT22;27615;51.826;5.692;2022-11-15T14:54:55;13.50;83.90
41926;DHT22;27615;51.826;5.692;2022-11-15T14:57:22;13.40;83.20
41926;DHT22;27615;51.826;5.692;2022-11-15T14:59:47;13.40;83.40
41926;DHT22;27615;51.826;5.692;2022-11-15T15:02:19;13.40;83.30
41926;DHT22;27615;51.826;5.692;2022-11-15T15:04:45;13.40;83.00
41926;DHT22;27615;51.826;5.692;2022-11-15T15:07:10;13.40;82.80
41926;DHT22;27615;51.826;5.692;2022-11-15T15:09:36;13.40;82.70
41926;DHT22;27615;51.826;5.692;2022-11-15T15:12:01;13.40;82.60
41926;DHT22;27615;51.826;5.692;2022-11-15T15:14:27;13.40;82.60
41926;DHT22;27615;51.826;5.692;2022-11-15T15:16:52;13.40;82.60
41926;DHT22;27615;51.826;5.692;2022-11-15T15:19:18;13.40;83.00
41926;DHT22;27615;51.826;5.692;2022-11-15T15:21:43;13.40;83.40
41926;DHT22;27615;51.826;5.692;2022-11-15T15:24:15;13.30;83.30
41926;DHT22;27615;51.826;5.692;2022-11-15T15:26:40;13.30;83.00
41926;DHT22;27615;51.826;5.692;2022-11-15T15:29:06;13.20;83.60
41926;DHT22;27615;51.826;5.692;2022-11-15T15:31:34;13.10;83.50
41926;DHT22;27615;51.826;5.692;2022-11-15T15:33:59;13.10;84.10
41926;DHT22;27615;51.826;5.692;2022-11-15T15:36:25;13.10;84.30
41926;DHT22;27615;51.826;5.692;2022-11-15T15:38:50;13.10;84.50
41926;DHT22;27615;51.826;5.692;2022-11-15T15:41:16;13.00;84.90
41926;DHT22;27615;51.826;5.692;2022-11-15T15:43:42;13.00;85.10
41926;DHT22;27615;51.826;5.692;2022-11-15T15:46:10;13.00;85.10
41926;DHT22;27615;51.826;5.692;2022-11-15T15:48:36;13.00;85.70
41926;DHT22;27615;51.826;5.692;2022-11-15T15:51:03;13.00;85.80
41926;DHT22;27615;51.826;5.692;2022-11-15T15:53:29;12.90;86.20
41926;DHT22;27615;51.826;5.692;2022-11-15T15:55:55;12.90;86.40
41926;DHT22;27615;51.826;5.692;2022-11-15T15:58:21;12.90;86.90
41926;DHT22;27615;51.826;5.692;2022-11-15T16:00:46;12.90;87.30
41926;DHT22;27615;51.826;5.692;2022-11-15T16:03:12;12.80;88.00
41926;DHT22;27615;51.826;5.692;2022-11-15T16:05:37;12.80;88.50
41926;DHT22;27615;51.826;5.692;2022-11-15T16:08:03;12.80;88.90
41926;DHT22;27615;51.826;5.692;2022-11-15T16:10:32;12.80;89.50
41926;DHT22;27615;51.826;5.692;2022-11-15T16:12:59;12.80;90.00
41926;DHT22;27615;51.826;5.692;2022-11-15T16:15:26;12.80;90.30
41926;DHT22;27615;51.826;5.692;2022-11-15T16:17:53;12.80;90.40
41926;DHT22;27615;51.826;5.692;2022-11-15T16:22:54;12.80;90.80
41926;DHT22;27615;51.826;5.692;2022-11-15T16:25:20;12.80;91.10
41926;DHT22;27615;51.826;5.692;2022-11-15T16:27:45;12.80;91.40
41926;DHT22;27615;51.826;5.692;2022-11-15T16:30:17;12.80;91.70
41926;DHT22;27615;51.826;5.692;2022-11-15T16:32:42;12.70;92.00
41926;DHT22;27615;51.826;5.692;2022-11-15T16:35:16;12.70;92.40
41926;DHT22;27615;51.826;5.692;2022-11-15T16:37:42;12.70;92.70
41926;DHT22;27615;51.826;5.692;2022-11-15T16:40:30;12.70;93.10
41926;DHT22;27615;51.826;5.692;2022-11-15T16:42:57;12.70;93.30
41926;DHT22;27615;51.826;5.692;2022-11-15T16:45:24;12.70;93.60
41926;DHT22;27615;51.826;5.692;2022-11-15T16:47:50;12.70;93.90
41926;DHT22;27615;51.826;5.692;2022-11-15T16:50:27;12.70;94.10
41926;DHT22;27615;51.826;5.692;2022-11-15T16:52:54;12.70;94.30
41926;DHT22;27615;51.826;5.692;2022-11-15T16:55:22;12.70;94.60
41926;DHT22;27615;51.826;5.692;2022-11-15T16:57:48;12.80;94.70
41926;DHT22;27615;51.826;5.692;2022-11-15T17:00:15;12.80;94.90
41926;DHT22;27615;51.826;5.692;2022-11-15T17:02:47;12.80;95.20
41926;DHT22;27615;51.826;5.692;2022-11-15T17:05:14;12.80;95.40
41926;DHT22;27615;51.826;5.692;2022-11-15T17:07:41;12.80;95.70
41926;DHT22;27615;51.826;5.692;2022-11-15T17:10:09;12.80;96.10
41926;DHT22;27615;51.826;5.692;2022-11-15T17:12:35;12.80;96.50
41926;DHT22;27615;51.826;5.692;2022-11-15T17:15:02;12.70;96.90
41926;DHT22;27615;51.826;5.692;2022-11-15T17:17:29;12.70;97.50
41926;DHT22;27615;51.826;5.692;2022-11-15T17:19:55;12.60;98.30
41926;DHT22;27615;51.826;5.692;2022-11-15T17:22:20;12.60;98.70
41926;DHT22;27615;51.826;5.692;2022-11-15T17:24:46;12.60;99.30
41926;DHT22;27615;51.826;5.692;2022-11-15T17:27:11;12.50;99.80
41926;DHT22;27615;51.826;5.692;2022-11-15T17:29:37;12.50;99.90
41926;DHT22;27615;51.826;5.692;2022-11-15T17:32:03;12.50;99.90
41926;DHT22;27615;51.826;5.692;2022-11-15T17:34:28;12.50;99.90
41926;DHT22;27615;51.826;5.692;2022-11-15T17:36:54;12.40;99.90
41926;DHT22;27615;51.826;5.692;2022-11-15T17:39:19;12.40;99.90
41926;DHT22;27615;51.826;5.692;2022-11-15T17:41:45;12.30;99.90
41926;DHT22;27615;51.826;5.692;2022-11-15T17:44:11;12.30;99.90
41926;DHT22;27615;51.826;5.692;2022-11-15T17:46:36;12.30;99.90
41926;DHT22;27615;51.826;5.692;2022-11-15T17:49:02;12.20;99.90
41926;DHT22;27615;51.826;5.692;2022-11-15T17:51:28;12.20;99.90
41926;DHT22;27615;51.826;5.692;2022-11-15T17:53:54;12.20;99.90
41926;DHT22;27615;51.826;5.692;2022-11-15T17:56:22;12.20;99.90
41926;DHT22;27615;51.826;5.692;2022-11-15T17:58:49;12.20;99.90
41926;DHT22;27615;51.826;5.692;2022-11-15T18:01:21;12.10;99.90
41926;DHT22;27615;51.826;5.692;2022-11-15T18:03:48;12.10;99.90
41926;DHT22;27615;51.826;5.692;2022-11-15T18:06:14;12.10;99.90
41926;DHT22;27615;51.826;5.692;2022-11-15T18:08:43;12.10;99.90
41926;DHT22;27615;51.826;5.692;2022-11-15T18:11:15;12.00;99.90
41926;DHT22;27615;51.826;5.692;2022-11-15T18:13:43;12.00;99.90
41926;DHT22;27615;51.826;5.692;2022-11-15T18:16:13;12.00;99.90
41926;DHT22;27615;51.826;5.692;2022-11-15T18:18:39;12.00;99.90
41926;DHT22;27615;51.826;5.692;2022-11-15T18:21:06;11.90;99.90
41926;DHT22;27615;51.826;5.692;2022-11-15T18:23:33;11.90;99.90
41926;DHT22;27615;51.826;5.692;2022-11-15T18:25:59;11.90;99.90
41926;DHT22;27615;51.826;5.692;2022-11-15T18:28:36;11.80;99.90
41926;DHT22;27615;51.826;5.692;2022-11-15T18:31:04;11.90;99.90
41926;DHT22;27615;51.826;5.692;2022-11-15T18:33:36;11.80;99.90
41926;DHT22;27615;51.826;5.692;2022-11-15T18:36:07;11.80;99.90
41926;DHT22;27615;51.826;5.692;2022-11-15T18:38:33;11.80;99.90
41926;DHT22;27615;51.826;5.692;2022-11-15T18:41:07;11.70;99.90
41926;DHT22;27615;51.826;5.692;2022-11-15T18:43:33;11.80;99.90
41926;DHT22;27615;51.826;5.692;2022-11-15T18:46:03;11.70;99.90
41926;DHT22;27615;51.826;5.692;2022-11-15T18:48:33;11.70;99.90
41926;DHT22;27615;51.826;5.692;2022-11-15T18:51:05;11.70;99.90
41926;DHT22;27615;51.826;5.692;2022-11-15T18:53:31;11.70;99.90
41926;DHT22;27615;51.826;5.692;2022-11-15T18:56:05;11.70;99.90
41926;DHT22;27615;51.826;5.692;2022-11-15T18:58:32;11.70;99.90
41926;DHT22;27615;51.826;5.692;2022-11-15T19:01:09;11.70;99.90
41926;DHT22;27615;51.826;5.692;2022-11-15T19:03:37;11.60;99.90
41926;DHT22;27615;51.826;5.692;2022-11-15T19:06:07;11.60;99.90
41926;DHT22;27615;51.826;5.692;2022-11-15T19:08:33;11.60;99.90
41926;DHT22;27615;51.826;5.692;2022-11-15T19:13:31;11.60;99.90
41926;DHT22;27615;51.826;5.692;2022-11-15T19:16:01;11.60;99.90
41926;DHT22;27615;51.826;5.692;2022-11-15T19:18:28;11.60;99.90
41926;DHT22;27615;51.826;5.692;2022-11-15T19:20:54;11.60;99.90
41926;DHT22;27615;51.826;5.692;2022-11-15T19:23:20;11.60;99.90
41926;DHT22;27615;51.826;5.692;2022-11-15T19:25:56;11.60;99.90
41926;DHT22;27615;51.826;5.692;2022-11-15T19:28:26;11.60;99.90
41926;DHT22;27615;51.826;5.692;2022-11-15T19:30:52;11.60;99.90
41926;DHT22;27615;51.826;5.692;2022-11-15T19:33:18;11.60;99.90
41926;DHT22;27615;51.826;5.692;2022-11-15T19:35:45;11.60;99.90
41926;DHT22;27615;51.826;5.692;2022-11-15T19:38:11;11.60;99.90
41926;DHT22;27615;51.826;5.692;2022-11-15T19:40:37;11.60;99.90
41926;DHT22;27615;51.826;5.692;2022-11-15T19:43:02;11.70;99.90
41926;DHT22;27615;51.826;5.692;2022-11-15T19:45:28;11.70;99.90
41926;DHT22;27615;51.826;5.692;2022-11-15T19:47:54;11.60;99.90
41926;DHT22;27615;51.826;5.692;2022-11-15T19:50:19;11.70;99.90
41926;DHT22;27615;51.826;5.692;2022-11-15T19:52:45;11.70;99.90
41926;DHT22;27615;51.826;5.692;2022-11-15T19:55:10;11.70;99.90
41926;DHT22;27615;51.826;5.692;2022-11-15T19:57:36;11.70;99.90
41926;DHT22;27615;51.826;5.692;2022-11-15T20:00:02;11.70;99.90
41926;DHT22;27615;51.826;5.692;2022-11-15T20:02:29;11.70;99.90
41926;DHT22;27615;51.826;5.692;2022-11-15T20:04:54;11.60;99.90
41926;DHT22;27615;51.826;5.692;2022-11-15T20:07:20;11.60;99.90
41926;DHT22;27615;51.826;5.692;2022-11-15T20:09:45;11.60;99.90
41926;DHT22;27615;51.826;5.692;2022-11-15T20:12:11;11.60;99.90
41926;DHT22;27615;51.826;5.692;2022-11-15T20:14:36;11.70;99.90
41926;DHT22;27615;51.826;5.692;2022-11-15T20:17:02;11.60;99.90
41926;DHT22;27615;51.826;5.692;2022-11-15T20:19:28;11.60;99.90
41926;DHT22;27615;51.826;5.692;2022-11-15T20:21:53;11.60;99.90
41926;DHT22;27615;51.826;5.692;2022-11-15T20:24:19;11.60;99.90
41926;DHT22;27615;51.826;5.692;2022-11-15T20:26:44;11.60;99.90
41926;DHT22;27615;51.826;5.692;2022-11-15T20:29:11;11.60;99.90